KFEP/FEP METAR and TAF weather

Enter ICAO airport designator
Station Type Date Time Source
KFEP METAR 2019/08/25 13:15 UTC NOAA

KFEP 251315Z AUTO 11006KT 10SM OVC050 15/14 A3015 RMK AO2 T01470143


Station Type Date Time Source
KFEP Decoded METAR 2019/08/25 13:15 UTC NOAA

Station name not available
Aug 25, 2019 - 09:15 AM EDT / 2019.08.25 1315 UTC
Wind: from the ESE (110 degrees) at 7 MPH (6 KT):0
Visibility: 10 mile(s):0
Sky conditions: overcast
Temperature: 58.5 F (14.7 C)
Dew Point: 57.7 F (14.3 C)
Relative Humidity: 97%
Pressure (altimeter): 30.15 in. Hg (1020 hPa)
ob: KFEP 251315Z AUTO 11006KT 10SM OVC050 15/14 A3015 RMK AO2 T01470143
cycle: 13

Station Type Date Time Source
KFEP TAF UTC NOAA

Error!

Example: see airport list